Wevelgem, Belgium

3:55 PM CET on February 26, 2017 (GMT +0100)
Vrijheidstraat | | Change Station

Elev 59 ft 50.82 °N, 3.17 °E | Updated 4 minutes ago

Overcast
Overcast
52.5 °F
Feels Like 52.5 °F
N
3.1
Wind Variable Wind from South
Gusts 9.9 mph

Today
High -- | Low -- °F
--% Chance of Precip.
Yesterday
High -- | Low -- °F
Precip. -- in
Pressure 29.80 in
Visibility 6.2 miles
Clouds Scattered Clouds 1700 ft
Mostly Cloudy 2300 ft
Dew Point 49 °F
Humidity 87%
Rainfall 0.00 in
Snow Depth Not available.
7:37 AM 6:23 PM
Waning Crescent, 0% visible
METAR EBFN 261425Z 24020KT 9999 SCT017 BKN023 11/08 Q1009 WHT
Pressure 29.80 in
Visibility 6.2 miles
Clouds Scattered Clouds 1700 ft
Mostly Cloudy 2300 ft
Dew Point 49 °F
Humidity 87%
Rainfall 0.00 in
Snow Depth Not available.
7:37 AM 6:23 PM
Waning Crescent, 0% visible
METAR EBFN 261425Z 24020KT 9999 SCT017 BKN023 11/08 Q1009 WHT

Get Your Daily Forecast Email!

Thanks for signing up!

Be on the lookout for a verification email in your inbox.

You'll start receiving the daily forecast at 8 AM.

×

10-Day Weather Forecast

×

Almanac

Astronomy

Feb. 26, 2017 Rise Set
Actual Time
Civil Twilight
Nautical Twilight
Astronomical Twilight
Moon
Length of Visible Light
Length of Day
Tomorrow will be .
, % of the Moon is Illuminated

Today's Extremes

Country Highs Country Lows

Community

WunderPhotos

Upload Photos

1,962,540 photos uploaded!

WunderBlog® & News

Nearby

Air Quality

  Air Quality AQ Index Pollutant
Not available.

Snow Depth

Station Depth Elevation

Earthquake Activity

City Distance Mag. Time & Date
Minimum magnitude displayed is 2.5.

Coastal Water Temperatures

Place Temperature

Stations

Nearby Weather Stations

Station Location Temp. Windchill Dew Point Humidity Wind Precip. Elev Updated Type